sensor_id;sensor_type;location;lat;lon;timestamp;P1;durP1;ratioP1;P2;durP2;ratioP2
80854;SDS011;70272;49.222;-122.892;2023-09-07T00:01:10;5.68;;;3.00;;
80854;SDS011;70272;49.222;-122.892;2023-09-07T00:03:38;6.10;;;2.88;;
80854;SDS011;70272;49.222;-122.892;2023-09-07T00:06:06;6.13;;;2.95;;
80854;SDS011;70272;49.222;-122.892;2023-09-07T00:08:33;6.30;;;2.60;;
80854;SDS011;70272;49.222;-122.892;2023-09-07T00:11:06;4.18;;;2.30;;
80854;SDS011;70272;49.222;-122.892;2023-09-07T00:13:33;7.10;;;3.13;;
80854;SDS011;70272;49.222;-122.892;2023-09-07T00:15:59;8.00;;;2.83;;
80854;SDS011;70272;49.222;-122.892;2023-09-07T00:18:27;17.02;;;5.47;;
80854;SDS011;70272;49.222;-122.892;2023-09-07T00:20:53;5.50;;;2.58;;
80854;SDS011;70272;49.222;-122.892;2023-09-07T00:23:19;5.85;;;3.17;;
80854;SDS011;70272;49.222;-122.892;2023-09-07T00:25:46;5.25;;;2.50;;
80854;SDS011;70272;49.222;-122.892;2023-09-07T00:28:12;4.80;;;2.70;;
80854;SDS011;70272;49.222;-122.892;2023-09-07T00:30:38;5.05;;;2.35;;
80854;SDS011;70272;49.222;-122.892;2023-09-07T00:33:05;4.22;;;2.30;;
80854;SDS011;70272;49.222;-122.892;2023-09-07T00:35:32;3.67;;;2.15;;
80854;SDS011;70272;49.222;-122.892;2023-09-07T00:37:59;4.30;;;2.40;;
80854;SDS011;70272;49.222;-122.892;2023-09-07T00:40:26;5.00;;;3.00;;
80854;SDS011;70272;49.222;-122.892;2023-09-07T00:42:53;5.10;;;2.67;;
80854;SDS011;70272;49.222;-122.892;2023-09-07T00:45:19;5.90;;;3.00;;
80854;SDS011;70272;49.222;-122.892;2023-09-07T00:47:46;6.55;;;3.40;;
80854;SDS011;70272;49.222;-122.892;2023-09-07T00:50:12;4.53;;;2.85;;
80854;SDS011;70272;49.222;-122.892;2023-09-07T00:52:39;6.90;;;2.70;;
80854;SDS011;70272;49.222;-122.892;2023-09-07T00:55:07;5.00;;;2.20;;
80854;SDS011;70272;49.222;-122.892;2023-09-07T00:57:35;4.25;;;2.55;;
80854;SDS011;70272;49.222;-122.892;2023-09-07T01:00:03;4.28;;;2.45;;
80854;SDS011;70272;49.222;-122.892;2023-09-07T01:02:31;5.22;;;2.53;;
80854;SDS011;70272;49.222;-122.892;2023-09-07T01:04:58;5.13;;;2.72;;
80854;SDS011;70272;49.222;-122.892;2023-09-07T01:07:25;4.40;;;2.53;;
80854;SDS011;70272;49.222;-122.892;2023-09-07T01:10:02;4.45;;;2.38;;
80854;SDS011;70272;49.222;-122.892;2023-09-07T01:12:28;5.00;;;2.70;;
80854;SDS011;70272;49.222;-122.892;2023-09-07T01:14:55;4.53;;;2.75;;
80854;SDS011;70272;49.222;-122.892;2023-09-07T01:17:24;7.57;;;2.42;;
80854;SDS011;70272;49.222;-122.892;2023-09-07T01:19:50;4.65;;;2.58;;
80854;SDS011;70272;49.222;-122.892;2023-09-07T01:22:19;6.47;;;2.65;;
80854;SDS011;70272;49.222;-122.892;2023-09-07T01:24:48;4.18;;;2.53;;
80854;SDS011;70272;49.222;-122.892;2023-09-07T01:27:15;4.25;;;2.55;;
80854;SDS011;70272;49.222;-122.892;2023-09-07T01:29:41;3.65;;;2.58;;
80854;SDS011;70272;49.222;-122.892;2023-09-07T01:32:07;7.38;;;3.15;;
80854;SDS011;70272;49.222;-122.892;2023-09-07T01:34:35;4.13;;;2.40;;
80854;SDS011;70272;49.222;-122.892;2023-09-07T01:37:01;3.58;;;2.30;;
80854;SDS011;70272;49.222;-122.892;2023-09-07T01:39:28;4.53;;;2.70;;
80854;SDS011;70272;49.222;-122.892;2023-09-07T01:41:54;6.80;;;3.22;;
80854;SDS011;70272;49.222;-122.892;2023-09-07T01:44:20;4.95;;;2.55;;
80854;SDS011;70272;49.222;-122.892;2023-09-07T01:46:46;5.47;;;2.42;;
80854;SDS011;70272;49.222;-122.892;2023-09-07T01:49:13;6.20;;;3.10;;
80854;SDS011;70272;49.222;-122.892;2023-09-07T01:51:39;4.28;;;2.50;;
80854;SDS011;70272;49.222;-122.892;2023-09-07T01:54:05;4.95;;;2.80;;
80854;SDS011;70272;49.222;-122.892;2023-09-07T01:56:32;5.28;;;2.80;;
80854;SDS011;70272;49.222;-122.892;2023-09-07T01:58:58;4.82;;;3.03;;
80854;SDS011;70272;49.222;-122.892;2023-09-07T02:01:25;6.43;;;2.80;;
80854;SDS011;70272;49.222;-122.892;2023-09-07T02:03:54;8.95;;;3.20;;
80854;SDS011;70272;49.222;-122.892;2023-09-07T02:06:21;6.15;;;2.97;;
80854;SDS011;70272;49.222;-122.892;2023-09-07T02:08:47;5.20;;;3.00;;
80854;SDS011;70272;49.222;-122.892;2023-09-07T02:11:14;6.40;;;3.08;;
80854;SDS011;70272;49.222;-122.892;2023-09-07T02:13:45;3.90;;;2.90;;
80854;SDS011;70272;49.222;-122.892;2023-09-07T02:16:12;4.68;;;2.90;;
80854;SDS011;70272;49.222;-122.892;2023-09-07T02:18:39;5.10;;;2.65;;
80854;SDS011;70272;49.222;-122.892;2023-09-07T02:21:09;4.32;;;2.60;;
80854;SDS011;70272;49.222;-122.892;2023-09-07T02:23:35;7.40;;;2.70;;
80854;SDS011;70272;49.222;-122.892;2023-09-07T02:26:04;4.72;;;2.38;;
80854;SDS011;70272;49.222;-122.892;2023-09-07T02:28:31;4.75;;;2.88;;
80854;SDS011;70272;49.222;-122.892;2023-09-07T02:31:03;4.88;;;2.60;;
80854;SDS011;70272;49.222;-122.892;2023-09-07T02:33:30;4.68;;;2.28;;
80854;SDS011;70272;49.222;-122.892;2023-09-07T02:35:57;3.95;;;2.33;;
80854;SDS011;70272;49.222;-122.892;2023-09-07T02:38:24;5.70;;;2.75;;
80854;SDS011;70272;49.222;-122.892;2023-09-07T02:40:50;4.10;;;2.58;;
80854;SDS011;70272;49.222;-122.892;2023-09-07T02:43:18;5.15;;;2.70;;
80854;SDS011;70272;49.222;-122.892;2023-09-07T02:45:44;5.15;;;2.90;;
80854;SDS011;70272;49.222;-122.892;2023-09-07T02:48:10;5.35;;;3.13;;
80854;SDS011;70272;49.222;-122.892;2023-09-07T02:50:36;5.22;;;3.15;;
80854;SDS011;70272;49.222;-122.892;2023-09-07T02:53:03;7.85;;;3.28;;
80854;SDS011;70272;49.222;-122.892;2023-09-07T02:55:29;5.53;;;2.90;;
80854;SDS011;70272;49.222;-122.892;2023-09-07T02:57:56;5.00;;;3.10;;
80854;SDS011;70272;49.222;-122.892;2023-09-07T03:00:22;5.80;;;2.90;;
80854;SDS011;70272;49.222;-122.892;2023-09-07T03:02:49;5.65;;;3.00;;
80854;SDS011;70272;49.222;-122.892;2023-09-07T03:05:16;4.32;;;3.00;;
80854;SDS011;70272;49.222;-122.892;2023-09-07T03:07:44;5.22;;;2.78;;
80854;SDS011;70272;49.222;-122.892;2023-09-07T03:10:11;5.95;;;2.90;;
80854;SDS011;70272;49.222;-122.892;2023-09-07T03:12:37;3.38;;;2.65;;
80854;SDS011;70272;49.222;-122.892;2023-09-07T03:15:04;6.38;;;3.10;;
80854;SDS011;70272;49.222;-122.892;2023-09-07T03:17:31;5.40;;;3.20;;
80854;SDS011;70272;49.222;-122.892;2023-09-07T03:19:57;6.38;;;3.40;;
80854;SDS011;70272;49.222;-122.892;2023-09-07T03:22:23;5.57;;;3.15;;
80854;SDS011;70272;49.222;-122.892;2023-09-07T03:24:50;6.35;;;3.13;;
80854;SDS011;70272;49.222;-122.892;2023-09-07T03:27:17;5.00;;;3.22;;
80854;SDS011;70272;49.222;-122.892;2023-09-07T03:29:49;5.80;;;3.05;;
80854;SDS011;70272;49.222;-122.892;2023-09-07T03:32:17;6.28;;;3.10;;
80854;SDS011;70272;49.222;-122.892;2023-09-07T03:34:43;4.93;;;3.15;;
80854;SDS011;70272;49.222;-122.892;2023-09-07T03:37:09;5.88;;;2.92;;
80854;SDS011;70272;49.222;-122.892;2023-09-07T03:39:36;6.28;;;3.28;;
80854;SDS011;70272;49.222;-122.892;2023-09-07T03:42:03;4.93;;;2.90;;
80854;SDS011;70272;49.222;-122.892;2023-09-07T03:44:29;5.18;;;2.70;;
80854;SDS011;70272;49.222;-122.892;2023-09-07T03:46:56;5.95;;;3.28;;
80854;SDS011;70272;49.222;-122.892;2023-09-07T03:49:22;6.32;;;3.08;;
80854;SDS011;70272;49.222;-122.892;2023-09-07T03:51:48;5.68;;;2.50;;
80854;SDS011;70272;49.222;-122.892;2023-09-07T03:54:14;4.82;;;2.90;;
80854;SDS011;70272;49.222;-122.892;2023-09-07T03:56:40;4.70;;;3.00;;
80854;SDS011;70272;49.222;-122.892;2023-09-07T03:59:09;5.60;;;2.90;;
80854;SDS011;70272;49.222;-122.892;2023-09-07T04:01:36;5.60;;;2.97;;
80854;SDS011;70272;49.222;-122.892;2023-09-07T04:04:02;4.78;;;2.67;;
80854;SDS011;70272;49.222;-122.892;2023-09-07T04:06:29;4.80;;;2.78;;
80854;SDS011;70272;49.222;-122.892;2023-09-07T04:08:55;4.32;;;2.78;;
80854;SDS011;70272;49.222;-122.892;2023-09-07T04:11:22;3.90;;;2.65;;
80854;SDS011;70272;49.222;-122.892;2023-09-07T04:13:48;4.47;;;2.70;;
80854;SDS011;70272;49.222;-122.892;2023-09-07T04:16:14;6.22;;;2.85;;
80854;SDS011;70272;49.222;-122.892;2023-09-07T04:18:40;4.68;;;2.60;;
80854;SDS011;70272;49.222;-122.892;2023-09-07T04:21:08;4.25;;;2.55;;
80854;SDS011;70272;49.222;-122.892;2023-09-07T04:23:34;6.43;;;3.38;;
80854;SDS011;70272;49.222;-122.892;2023-09-07T04:26:07;4.85;;;2.85;;
80854;SDS011;70272;49.222;-122.892;2023-09-07T04:28:34;4.28;;;2.88;;
80854;SDS011;70272;49.222;-122.892;2023-09-07T04:31:01;6.13;;;2.83;;
80854;SDS011;70272;49.222;-122.892;2023-09-07T04:33:31;4.03;;;2.83;;
80854;SDS011;70272;49.222;-122.892;2023-09-07T04:36:07;5.15;;;2.80;;
80854;SDS011;70272;49.222;-122.892;2023-09-07T04:38:37;5.15;;;2.92;;
80854;SDS011;70272;49.222;-122.892;2023-09-07T04:43:34;5.20;;;3.40;;
80854;SDS011;70272;49.222;-122.892;2023-09-07T04:46:01;5.50;;;3.20;;
80854;SDS011;70272;49.222;-122.892;2023-09-07T04:48:28;6.43;;;2.90;;
80854;SDS011;70272;49.222;-122.892;2023-09-07T04:51:00;6.63;;;3.20;;
80854;SDS011;70272;49.222;-122.892;2023-09-07T04:53:29;5.38;;;3.13;;
80854;SDS011;70272;49.222;-122.892;2023-09-07T04:55:57;5.45;;;2.92;;
80854;SDS011;70272;49.222;-122.892;2023-09-07T04:58:24;4.32;;;3.00;;
80854;SDS011;70272;49.222;-122.892;2023-09-07T05:00:50;5.07;;;3.05;;
80854;SDS011;70272;49.222;-122.892;2023-09-07T05:03:17;5.93;;;3.22;;
80854;SDS011;70272;49.222;-122.892;2023-09-07T05:05:43;5.70;;;3.35;;
80854;SDS011;70272;49.222;-122.892;2023-09-07T05:08:10;5.22;;;2.75;;
80854;SDS011;70272;49.222;-122.892;2023-09-07T05:10:36;5.82;;;3.08;;
80854;SDS011;70272;49.222;-122.892;2023-09-07T05:13:03;4.47;;;2.70;;
80854;SDS011;70272;49.222;-122.892;2023-09-07T05:15:29;5.25;;;3.05;;
80854;SDS011;70272;49.222;-122.892;2023-09-07T05:17:56;4.43;;;3.08;;
80854;SDS011;70272;49.222;-122.892;2023-09-07T05:20:22;4.60;;;2.90;;
80854;SDS011;70272;49.222;-122.892;2023-09-07T05:22:48;5.93;;;3.00;;
80854;SDS011;70272;49.222;-122.892;2023-09-07T05:25:14;9.32;;;2.97;;
80854;SDS011;70272;49.222;-122.892;2023-09-07T05:27:41;4.97;;;3.20;;
80854;SDS011;70272;49.222;-122.892;2023-09-07T05:30:07;5.72;;;3.40;;
80854;SDS011;70272;49.222;-122.892;2023-09-07T05:32:33;5.40;;;3.15;;
80854;SDS011;70272;49.222;-122.892;2023-09-07T05:35:00;6.03;;;3.05;;
80854;SDS011;70272;49.222;-122.892;2023-09-07T05:37:26;5.25;;;2.90;;
80854;SDS011;70272;49.222;-122.892;2023-09-07T05:39:52;5.45;;;2.90;;
80854;SDS011;70272;49.222;-122.892;2023-09-07T05:42:18;5.05;;;2.80;;
80854;SDS011;70272;49.222;-122.892;2023-09-07T05:44:45;5.25;;;2.70;;
80854;SDS011;70272;49.222;-122.892;2023-09-07T05:47:11;5.28;;;3.05;;
80854;SDS011;70272;49.222;-122.892;2023-09-07T05:49:37;5.80;;;2.75;;
80854;SDS011;70272;49.222;-122.892;2023-09-07T05:52:03;4.88;;;2.90;;
80854;SDS011;70272;49.222;-122.892;2023-09-07T05:54:30;4.22;;;2.72;;
80854;SDS011;70272;49.222;-122.892;2023-09-07T05:56:56;5.45;;;3.05;;
80854;SDS011;70272;49.222;-122.892;2023-09-07T05:59:22;4.50;;;3.10;;
80854;SDS011;70272;49.222;-122.892;2023-09-07T06:01:48;4.25;;;2.75;;
80854;SDS011;70272;49.222;-122.892;2023-09-07T06:04:15;5.80;;;3.00;;
80854;SDS011;70272;49.222;-122.892;2023-09-07T06:06:41;4.95;;;3.03;;
80854;SDS011;70272;49.222;-122.892;2023-09-07T06:09:07;3.70;;;2.75;;
80854;SDS011;70272;49.222;-122.892;2023-09-07T06:11:33;5.68;;;2.90;;
80854;SDS011;70272;49.222;-122.892;2023-09-07T06:14:00;4.90;;;2.78;;
80854;SDS011;70272;49.222;-122.892;2023-09-07T06:16:26;4.07;;;2.65;;
80854;SDS011;70272;49.222;-122.892;2023-09-07T06:18:52;5.28;;;3.00;;
80854;SDS011;70272;49.222;-122.892;2023-09-07T06:21:18;6.03;;;2.97;;
80854;SDS011;70272;49.222;-122.892;2023-09-07T06:23:45;6.03;;;2.85;;
80854;SDS011;70272;49.222;-122.892;2023-09-07T06:26:11;5.63;;;2.90;;
80854;SDS011;70272;49.222;-122.892;2023-09-07T06:28:37;5.60;;;3.05;;
80854;SDS011;70272;49.222;-122.892;2023-09-07T06:31:04;4.88;;;3.05;;
80854;SDS011;70272;49.222;-122.892;2023-09-07T06:33:30;6.00;;;2.97;;
80854;SDS011;70272;49.222;-122.892;2023-09-07T06:35:56;6.90;;;2.97;;
80854;SDS011;70272;49.222;-122.892;2023-09-07T06:38:26;6.97;;;3.30;;
80854;SDS011;70272;49.222;-122.892;2023-09-07T06:40:52;4.22;;;2.78;;
80854;SDS011;70272;49.222;-122.892;2023-09-07T06:43:19;4.75;;;2.90;;
80854;SDS011;70272;49.222;-122.892;2023-09-07T06:45:45;5.25;;;2.92;;
80854;SDS011;70272;49.222;-122.892;2023-09-07T06:48:11;4.30;;;2.70;;
80854;SDS011;70272;49.222;-122.892;2023-09-07T06:50:38;6.63;;;3.15;;
80854;SDS011;70272;49.222;-122.892;2023-09-07T06:53:04;5.85;;;3.00;;
80854;SDS011;70272;49.222;-122.892;2023-09-07T06:55:30;4.15;;;2.78;;
80854;SDS011;70272;49.222;-122.892;2023-09-07T06:57:56;6.72;;;3.20;;
80854;SDS011;70272;49.222;-122.892;2023-09-07T07:00:25;5.15;;;3.22;;
80854;SDS011;70272;49.222;-122.892;2023-09-07T07:02:52;5.22;;;3.15;;
80854;SDS011;70272;49.222;-122.892;2023-09-07T07:05:18;6.18;;;3.10;;
80854;SDS011;70272;49.222;-122.892;2023-09-07T07:07:46;5.13;;;2.95;;
80854;SDS011;70272;49.222;-122.892;2023-09-07T07:10:12;3.63;;;2.92;;
80854;SDS011;70272;49.222;-122.892;2023-09-07T07:12:39;5.30;;;3.13;;
80854;SDS011;70272;49.222;-122.892;2023-09-07T07:15:05;4.85;;;3.13;;
80854;SDS011;70272;49.222;-122.892;2023-09-07T07:17:32;4.80;;;2.88;;
80854;SDS011;70272;49.222;-122.892;2023-09-07T07:19:59;5.97;;;3.00;;
80854;SDS011;70272;49.222;-122.892;2023-09-07T07:22:25;4.72;;;2.72;;
80854;SDS011;70272;49.222;-122.892;2023-09-07T07:24:51;4.68;;;2.97;;
80854;SDS011;70272;49.222;-122.892;2023-09-07T07:27:17;4.80;;;2.90;;
80854;SDS011;70272;49.222;-122.892;2023-09-07T07:29:44;5.47;;;3.05;;
80854;SDS011;70272;49.222;-122.892;2023-09-07T07:32:10;5.35;;;3.00;;
80854;SDS011;70272;49.222;-122.892;2023-09-07T07:34:37;5.25;;;3.30;;
80854;SDS011;70272;49.222;-122.892;2023-09-07T07:37:03;5.28;;;3.20;;
80854;SDS011;70272;49.222;-122.892;2023-09-07T07:39:29;4.72;;;3.15;;
80854;SDS011;70272;49.222;-122.892;2023-09-07T07:41:55;3.75;;;2.67;;
80854;SDS011;70272;49.222;-122.892;2023-09-07T07:44:22;4.50;;;3.10;;
80854;SDS011;70272;49.222;-122.892;2023-09-07T07:46:48;4.82;;;3.15;;
80854;SDS011;70272;49.222;-122.892;2023-09-07T07:49:14;5.68;;;2.88;;
80854;SDS011;70272;49.222;-122.892;2023-09-07T07:51:41;4.30;;;2.97;;
80854;SDS011;70272;49.222;-122.892;2023-09-07T07:54:07;4.63;;;2.83;;
80854;SDS011;70272;49.222;-122.892;2023-09-07T07:56:33;6.20;;;2.85;;
80854;SDS011;70272;49.222;-122.892;2023-09-07T07:59:00;5.05;;;2.90;;
80854;SDS011;70272;49.222;-122.892;2023-09-07T08:01:27;4.95;;;3.20;;
80854;SDS011;70272;49.222;-122.892;2023-09-07T08:03:54;5.30;;;3.00;;
80854;SDS011;70272;49.222;-122.892;2023-09-07T08:06:21;5.50;;;3.17;;
80854;SDS011;70272;49.222;-122.892;2023-09-07T08:08:47;5.22;;;3.22;;
80854;SDS011;70272;49.222;-122.892;2023-09-07T08:11:13;5.68;;;2.83;;
80854;SDS011;70272;49.222;-122.892;2023-09-07T08:13:40;6.32;;;3.03;;
80854;SDS011;70272;49.222;-122.892;2023-09-07T08:16:06;5.25;;;3.20;;
80854;SDS011;70272;49.222;-122.892;2023-09-07T08:18:33;5.18;;;2.97;;
80854;SDS011;70272;49.222;-122.892;2023-09-07T08:20:59;5.57;;;3.00;;
80854;SDS011;70272;49.222;-122.892;2023-09-07T08:23:26;5.35;;;2.97;;
80854;SDS011;70272;49.222;-122.892;2023-09-07T08:25:52;5.82;;;3.20;;
80854;SDS011;70272;49.222;-122.892;2023-09-07T08:28:19;5.43;;;3.40;;
80854;SDS011;70272;49.222;-122.892;2023-09-07T08:30:50;4.30;;;2.58;;
80854;SDS011;70272;49.222;-122.892;2023-09-07T08:33:24;6.57;;;2.90;;
80854;SDS011;70272;49.222;-122.892;2023-09-07T08:36:05;4.32;;;3.10;;
80854;SDS011;70272;49.222;-122.892;2023-09-07T08:38:31;4.57;;;2.70;;
80854;SDS011;70272;49.222;-122.892;2023-09-07T08:41:00;5.03;;;2.90;;
80854;SDS011;70272;49.222;-122.892;2023-09-07T08:43:30;5.20;;;3.03;;
80854;SDS011;70272;49.222;-122.892;2023-09-07T08:46:13;5.40;;;3.17;;
80854;SDS011;70272;49.222;-122.892;2023-09-07T08:48:40;6.07;;;3.22;;
80854;SDS011;70272;49.222;-122.892;2023-09-07T08:51:09;5.32;;;3.35;;
80854;SDS011;70272;49.222;-122.892;2023-09-07T08:53:41;4.15;;;2.70;;
80854;SDS011;70272;49.222;-122.892;2023-09-07T08:56:14;5.78;;;3.28;;
80854;SDS011;70272;49.222;-122.892;2023-09-07T08:58:41;4.95;;;3.08;;
80854;SDS011;70272;49.222;-122.892;2023-09-07T09:01:07;4.72;;;2.88;;
80854;SDS011;70272;49.222;-122.892;2023-09-07T09:03:38;5.60;;;2.95;;
80854;SDS011;70272;49.222;-122.892;2023-09-07T09:06:04;7.30;;;3.10;;
80854;SDS011;70272;49.222;-122.892;2023-09-07T09:08:43;4.03;;;2.60;;
80854;SDS011;70272;49.222;-122.892;2023-09-07T09:11:11;4.93;;;2.97;;
80854;SDS011;70272;49.222;-122.892;2023-09-07T09:13:39;6.20;;;3.30;;
80854;SDS011;70272;49.222;-122.892;2023-09-07T09:16:06;5.97;;;3.08;;
80854;SDS011;70272;49.222;-122.892;2023-09-07T09:18:32;5.88;;;3.33;;
80854;SDS011;70272;49.222;-122.892;2023-09-07T09:20:58;4.25;;;2.92;;
80854;SDS011;70272;49.222;-122.892;2023-09-07T09:23:30;7.07;;;2.97;;
80854;SDS011;70272;49.222;-122.892;2023-09-07T09:25:59;4.65;;;2.90;;
80854;SDS011;70272;49.222;-122.892;2023-09-07T09:28:26;5.03;;;3.00;;
80854;SDS011;70272;49.222;-122.892;2023-09-07T09:30:57;5.47;;;3.10;;
80854;SDS011;70272;49.222;-122.892;2023-09-07T09:33:25;4.43;;;2.88;;
80854;SDS011;70272;49.222;-122.892;2023-09-07T09:35:52;4.90;;;3.10;;
80854;SDS011;70272;49.222;-122.892;2023-09-07T09:38:19;5.32;;;3.00;;
80854;SDS011;70272;49.222;-122.892;2023-09-07T09:40:46;5.47;;;2.88;;
80854;SDS011;70272;49.222;-122.892;2023-09-07T09:43:12;5.63;;;3.25;;
80854;SDS011;70272;49.222;-122.892;2023-09-07T09:45:38;6.82;;;3.05;;
80854;SDS011;70272;49.222;-122.892;2023-09-07T09:48:05;5.38;;;3.20;;
80854;SDS011;70272;49.222;-122.892;2023-09-07T09:50:32;5.30;;;2.90;;
80854;SDS011;70272;49.222;-122.892;2023-09-07T09:53:07;6.32;;;3.38;;
80854;SDS011;70272;49.222;-122.892;2023-09-07T09:55:34;4.75;;;2.95;;
80854;SDS011;70272;49.222;-122.892;2023-09-07T09:58:01;4.82;;;3.03;;
80854;SDS011;70272;49.222;-122.892;2023-09-07T10:00:27;4.90;;;3.20;;
80854;SDS011;70272;49.222;-122.892;2023-09-07T10:03:02;6.18;;;3.00;;
80854;SDS011;70272;49.222;-122.892;2023-09-07T10:05:31;5.43;;;3.15;;
80854;SDS011;70272;49.222;-122.892;2023-09-07T10:08:03;4.13;;;2.67;;
80854;SDS011;70272;49.222;-122.892;2023-09-07T10:10:40;4.88;;;3.00;;
80854;SDS011;70272;49.222;-122.892;2023-09-07T10:13:07;5.97;;;3.00;;
80854;SDS011;70272;49.222;-122.892;2023-09-07T10:15:34;5.18;;;3.30;;
80854;SDS011;70272;49.222;-122.892;2023-09-07T10:18:11;7.05;;;3.10;;
80854;SDS011;70272;49.222;-122.892;2023-09-07T10:23:18;6.18;;;2.72;;
80854;SDS011;70272;49.222;-122.892;2023-09-07T10:25:48;6.45;;;3.08;;
80854;SDS011;70272;49.222;-122.892;2023-09-07T10:28:19;6.03;;;3.17;;
80854;SDS011;70272;49.222;-122.892;2023-09-07T10:30:57;6.25;;;3.08;;
80854;SDS011;70272;49.222;-122.892;2023-09-07T10:33:29;5.93;;;3.30;;
80854;SDS011;70272;49.222;-122.892;2023-09-07T10:35:56;5.22;;;3.30;;
80854;SDS011;70272;49.222;-122.892;2023-09-07T10:38:23;4.68;;;2.88;;
80854;SDS011;70272;49.222;-122.892;2023-09-07T10:40:54;5.50;;;3.28;;
80854;SDS011;70272;49.222;-122.892;2023-09-07T10:43:25;5.50;;;3.30;;
80854;SDS011;70272;49.222;-122.892;2023-09-07T10:45:52;6.40;;;3.00;;
80854;SDS011;70272;49.222;-122.892;2023-09-07T10:48:22;5.85;;;3.10;;
80854;SDS011;70272;49.222;-122.892;2023-09-07T10:50:50;4.97;;;3.28;;
80854;SDS011;70272;49.222;-122.892;2023-09-07T10:53:30;6.45;;;3.10;;
80854;SDS011;70272;49.222;-122.892;2023-09-07T10:55:58;4.80;;;3.00;;
80854;SDS011;70272;49.222;-122.892;2023-09-07T10:58:29;6.28;;;3.15;;
80854;SDS011;70272;49.222;-122.892;2023-09-07T11:00:56;6.75;;;3.28;;
80854;SDS011;70272;49.222;-122.892;2023-09-07T11:03:26;5.65;;;3.20;;
80854;SDS011;70272;49.222;-122.892;2023-09-07T11:06:00;5.40;;;2.75;;
80854;SDS011;70272;49.222;-122.892;2023-09-07T11:08:38;4.78;;;2.78;;
80854;SDS011;70272;49.222;-122.892;2023-09-07T11:11:04;4.72;;;2.97;;
80854;SDS011;70272;49.222;-122.892;2023-09-07T11:13:30;6.70;;;3.05;;
80854;SDS011;70272;49.222;-122.892;2023-09-07T11:15:57;5.03;;;2.95;;
80854;SDS011;70272;49.222;-122.892;2023-09-07T11:18:24;5.07;;;3.05;;
80854;SDS011;70272;49.222;-122.892;2023-09-07T11:20:51;5.25;;;3.30;;
80854;SDS011;70272;49.222;-122.892;2023-09-07T11:23:19;6.93;;;3.20;;
80854;SDS011;70272;49.222;-122.892;2023-09-07T11:25:49;5.95;;;2.90;;
80854;SDS011;70272;49.222;-122.892;2023-09-07T11:28:16;5.13;;;2.92;;
80854;SDS011;70272;49.222;-122.892;2023-09-07T11:30:50;5.18;;;2.92;;
80854;SDS011;70272;49.222;-122.892;2023-09-07T11:33:17;6.82;;;3.08;;
80854;SDS011;70272;49.222;-122.892;2023-09-07T11:35:43;6.15;;;2.95;;
80854;SDS011;70272;49.222;-122.892;2023-09-07T11:38:12;6.43;;;3.28;;
80854;SDS011;70272;49.222;-122.892;2023-09-07T11:40:39;4.00;;;3.05;;
80854;SDS011;70272;49.222;-122.892;2023-09-07T11:43:13;6.70;;;3.67;;
80854;SDS011;70272;49.222;-122.892;2023-09-07T11:45:40;5.05;;;3.17;;
80854;SDS011;70272;49.222;-122.892;2023-09-07T11:48:06;6.03;;;3.63;;
80854;SDS011;70272;49.222;-122.892;2023-09-07T11:50:34;6.72;;;3.58;;
80854;SDS011;70272;49.222;-122.892;2023-09-07T11:53:01;8.70;;;3.83;;
80854;SDS011;70272;49.222;-122.892;2023-09-07T11:55:27;4.90;;;3.28;;
80854;SDS011;70272;49.222;-122.892;2023-09-07T11:57:54;5.90;;;3.80;;
80854;SDS011;70272;49.222;-122.892;2023-09-07T12:00:20;6.55;;;3.50;;
80854;SDS011;70272;49.222;-122.892;2023-09-07T12:02:47;8.05;;;3.80;;
80854;SDS011;70272;49.222;-122.892;2023-09-07T12:05:14;8.07;;;3.63;;
80854;SDS011;70272;49.222;-122.892;2023-09-07T12:07:41;8.55;;;3.75;;
80854;SDS011;70272;49.222;-122.892;2023-09-07T12:10:11;6.95;;;4.10;;
80854;SDS011;70272;49.222;-122.892;2023-09-07T12:12:42;5.43;;;3.60;;
80854;SDS011;70272;49.222;-122.892;2023-09-07T12:15:09;7.22;;;4.32;;
80854;SDS011;70272;49.222;-122.892;2023-09-07T12:17:39;6.07;;;3.53;;
80854;SDS011;70272;49.222;-122.892;2023-09-07T12:20:06;7.18;;;3.95;;
80854;SDS011;70272;49.222;-122.892;2023-09-07T12:22:38;8.80;;;4.25;;
80854;SDS011;70272;49.222;-122.892;2023-09-07T12:25:05;7.28;;;3.55;;
80854;SDS011;70272;49.222;-122.892;2023-09-07T12:27:36;6.03;;;3.75;;
80854;SDS011;70272;49.222;-122.892;2023-09-07T12:30:02;8.98;;;4.32;;
80854;SDS011;70272;49.222;-122.892;2023-09-07T12:32:33;9.15;;;4.10;;
80854;SDS011;70272;49.222;-122.892;2023-09-07T12:34:59;7.07;;;3.63;;
80854;SDS011;70272;49.222;-122.892;2023-09-07T12:37:26;5.85;;;3.55;;
80854;SDS011;70272;49.222;-122.892;2023-09-07T12:39:52;7.47;;;3.83;;
80854;SDS011;70272;49.222;-122.892;2023-09-07T12:42:18;8.32;;;4.20;;
80854;SDS011;70272;49.222;-122.892;2023-09-07T12:44:44;9.45;;;3.92;;
80854;SDS011;70272;49.222;-122.892;2023-09-07T12:47:11;8.23;;;3.97;;
80854;SDS011;70272;49.222;-122.892;2023-09-07T12:49:39;8.43;;;4.95;;
80854;SDS011;70272;49.222;-122.892;2023-09-07T12:52:07;11.32;;;5.60;;
80854;SDS011;70272;49.222;-122.892;2023-09-07T12:54:37;11.38;;;5.63;;
80854;SDS011;70272;49.222;-122.892;2023-09-07T12:57:03;10.13;;;5.50;;
80854;SDS011;70272;49.222;-122.892;2023-09-07T12:59:30;9.70;;;5.20;;
80854;SDS011;70272;49.222;-122.892;2023-09-07T13:01:56;9.27;;;4.75;;
80854;SDS011;70272;49.222;-122.892;2023-09-07T13:04:22;8.98;;;4.70;;
80854;SDS011;70272;49.222;-122.892;2023-09-07T13:06:48;8.93;;;4.80;;
80854;SDS011;70272;49.222;-122.892;2023-09-07T13:09:15;11.27;;;4.97;;
80854;SDS011;70272;49.222;-122.892;2023-09-07T13:11:41;10.05;;;5.45;;
80854;SDS011;70272;49.222;-122.892;2023-09-07T13:14:07;11.77;;;5.43;;
80854;SDS011;70272;49.222;-122.892;2023-09-07T13:16:34;20.85;;;6.60;;
80854;SDS011;70272;49.222;-122.892;2023-09-07T13:19:00;12.70;;;5.55;;
80854;SDS011;70272;49.222;-122.892;2023-09-07T13:21:26;12.93;;;5.32;;
80854;SDS011;70272;49.222;-122.892;2023-09-07T13:23:52;15.88;;;5.80;;
80854;SDS011;70272;49.222;-122.892;2023-09-07T13:26:18;14.45;;;6.45;;
80854;SDS011;70272;49.222;-122.892;2023-09-07T13:28:45;10.93;;;5.43;;
80854;SDS011;70272;49.222;-122.892;2023-09-07T13:31:11;13.50;;;6.68;;
80854;SDS011;70272;49.222;-122.892;2023-09-07T13:33:37;11.80;;;6.35;;
80854;SDS011;70272;49.222;-122.892;2023-09-07T13:36:03;13.63;;;6.53;;
80854;SDS011;70272;49.222;-122.892;2023-09-07T13:38:29;11.10;;;6.38;;
80854;SDS011;70272;49.222;-122.892;2023-09-07T13:40:56;13.75;;;7.00;;
80854;SDS011;70272;49.222;-122.892;2023-09-07T13:43:22;15.07;;;7.05;;
80854;SDS011;70272;49.222;-122.892;2023-09-07T13:45:48;10.15;;;6.47;;
80854;SDS011;70272;49.222;-122.892;2023-09-07T13:48:14;12.80;;;6.45;;
80854;SDS011;70272;49.222;-122.892;2023-09-07T13:50:41;11.68;;;6.47;;
80854;SDS011;70272;49.222;-122.892;2023-09-07T13:53:08;12.02;;;7.80;;
80854;SDS011;70272;49.222;-122.892;2023-09-07T13:55:34;17.73;;;8.63;;
80854;SDS011;70272;49.222;-122.892;2023-09-07T13:58:00;13.13;;;7.35;;
80854;SDS011;70272;49.222;-122.892;2023-09-07T14:00:27;16.40;;;7.88;;
80854;SDS011;70272;49.222;-122.892;2023-09-07T14:02:53;12.68;;;6.85;;
80854;SDS011;70272;49.222;-122.892;2023-09-07T14:05:19;10.98;;;6.05;;
80854;SDS011;70272;49.222;-122.892;2023-09-07T14:07:45;11.05;;;6.20;;
80854;SDS011;70272;49.222;-122.892;2023-09-07T14:10:15;12.43;;;7.13;;
80854;SDS011;70272;49.222;-122.892;2023-09-07T14:12:42;13.20;;;7.65;;
80854;SDS011;70272;49.222;-122.892;2023-09-07T14:15:09;10.23;;;6.57;;